createdAt,value
2019-02-21T00:02:21.389Z,6.20
2019-02-21T00:04:51.133Z,6.20
2019-02-21T00:07:42.021Z,6.20
2019-02-21T00:10:11.666Z,6.30
2019-02-21T00:12:43.770Z,6.30
2019-02-21T00:15:13.818Z,6.30
2019-02-21T00:17:43.861Z,6.30
2019-02-21T00:20:14.580Z,6.30
2019-02-21T00:22:47.835Z,6.30
2019-02-21T00:25:20.122Z,6.30
2019-02-21T00:27:50.669Z,6.30
2019-02-21T00:30:20.288Z,6.30
2019-02-21T00:32:49.836Z,6.30
2019-02-21T00:35:22.267Z,6.30
2019-02-21T00:37:51.686Z,6.30
2019-02-21T00:40:21.532Z,6.30
2019-02-21T00:42:50.913Z,6.30
2019-02-21T00:45:23.186Z,6.30
2019-02-21T00:47:52.926Z,6.20
2019-02-21T00:50:22.418Z,6.20
2019-02-21T00:53:06.275Z,6.20
2019-02-21T00:55:44.257Z,6.20
2019-02-21T00:58:13.772Z,6.20
2019-02-21T01:00:46.745Z,6.20
2019-02-21T01:03:18.998Z,6.20
2019-02-21T01:05:48.724Z,6.20
2019-02-21T01:08:18.141Z,6.20
2019-02-21T01:10:47.646Z,6.10
2019-02-21T01:13:17.369Z,6.10
2019-02-21T01:15:46.891Z,6.10
2019-02-21T01:18:16.286Z,6.10
2019-02-21T01:20:45.645Z,6.10
2019-02-21T01:23:15.721Z,6.20
2019-02-21T01:25:45.495Z,6.10
2019-02-21T01:28:15.373Z,6.10
2019-02-21T01:30:44.948Z,6.10
2019-02-21T01:33:15.009Z,6.10
2019-02-21T01:35:44.688Z,6.10
2019-02-21T01:38:14.053Z,6.10
2019-02-21T01:40:43.474Z,6.10
2019-02-21T01:43:13.156Z,6.10
2019-02-21T01:45:42.613Z,6.10
2019-02-21T01:48:12.013Z,6.00
2019-02-21T01:50:41.544Z,6.00
2019-02-21T01:53:10.961Z,6.00
2019-02-21T01:55:40.868Z,6.00
2019-02-21T01:58:11.649Z,6.00
2019-02-21T02:00:41.709Z,5.90
2019-02-21T02:03:11.418Z,5.90
2019-02-21T02:05:40.851Z,5.90
2019-02-21T02:08:13.324Z,5.90
2019-02-21T02:10:43.007Z,5.90
2019-02-21T02:13:24.119Z,5.80
2019-02-21T02:15:44.211Z,5.80
2019-02-21T02:18:14.116Z,5.80
2019-02-21T02:20:43.950Z,5.80
2019-02-21T02:23:13.538Z,5.70
2019-02-21T02:25:43.032Z,5.70
2019-02-21T02:28:14.130Z,5.80
2019-02-21T02:30:44.254Z,5.70
2019-02-21T02:33:13.759Z,5.70
2019-02-21T02:35:43.222Z,5.70
2019-02-21T02:38:12.626Z,5.70
2019-02-21T02:40:42.109Z,5.60
2019-02-21T02:43:11.546Z,5.60
2019-02-21T02:45:41.483Z,5.60
2019-02-21T02:48:11.295Z,5.60
2019-02-21T02:50:40.993Z,5.60
2019-02-21T02:53:10.353Z,5.60
2019-02-21T02:55:40.188Z,5.60
2019-02-21T02:58:09.573Z,5.60
2019-02-21T03:00:39.026Z,5.60
2019-02-21T03:03:08.754Z,5.60
2019-02-21T03:05:38.255Z,5.60
2019-02-21T03:08:11.212Z,5.60
2019-02-21T03:10:42.868Z,5.60
2019-02-21T03:13:17.125Z,5.60
2019-02-21T03:15:46.610Z,5.60
2019-02-21T03:18:27.015Z,5.60
2019-02-21T03:20:58.158Z,5.60
2019-02-21T03:23:27.600Z,5.60
2019-02-21T03:25:57.069Z,5.50
2019-02-21T03:28:26.541Z,5.60
2019-02-21T03:30:55.981Z,5.60
2019-02-21T03:33:35.257Z,5.60
2019-02-21T03:36:05.368Z,5.60
2019-02-21T03:38:35.551Z,5.60
2019-02-21T03:41:55.032Z,5.70
2019-02-21T03:44:24.767Z,5.60
2019-02-21T03:46:54.521Z,5.70
2019-02-21T03:49:24.531Z,5.60
2019-02-21T03:51:54.048Z,5.70
2019-02-21T03:54:23.853Z,5.70
2019-02-21T03:56:53.258Z,5.70
2019-02-21T03:59:22.960Z,5.70
2019-02-21T04:02:04.104Z,5.70
2019-02-21T04:04:23.485Z,5.80
2019-02-21T04:06:52.913Z,5.80
2019-02-21T04:09:22.930Z,5.70
2019-02-21T04:11:52.271Z,5.70
2019-02-21T04:14:22.001Z,5.70
2019-02-21T04:16:51.612Z,5.70
2019-02-21T04:19:20.964Z,5.70
2019-02-21T04:21:50.558Z,5.70
2019-02-21T04:24:20.051Z,5.70
2019-02-21T04:26:49.443Z,5.70
2019-02-21T04:29:18.924Z,5.70
2019-02-21T04:31:48.356Z,5.70
2019-02-21T04:34:17.836Z,5.70
2019-02-21T04:36:48.011Z,5.70
2019-02-21T04:39:18.269Z,5.70
2019-02-21T04:41:47.696Z,5.70
2019-02-21T04:44:17.086Z,5.70
2019-02-21T04:46:46.936Z,5.60
2019-02-21T04:49:16.396Z,5.70
2019-02-21T04:51:45.831Z,5.70
2019-02-21T04:54:15.157Z,5.70
2019-02-21T04:56:44.930Z,5.70
2019-02-21T04:59:14.334Z,5.60
2019-02-21T05:01:43.782Z,5.60
2019-02-21T05:04:13.148Z,5.60
2019-02-21T05:06:43.172Z,5.60
2019-02-21T05:09:12.499Z,5.60
2019-02-21T05:11:42.152Z,5.60
2019-02-21T05:14:11.601Z,5.50
2019-02-21T05:16:41.133Z,5.60
2019-02-21T05:19:11.007Z,5.50
2019-02-21T05:21:40.826Z,5.50
2019-02-21T05:24:10.213Z,5.60
2019-02-21T05:26:46.892Z,5.60
2019-02-21T05:29:16.540Z,5.60
2019-02-21T05:32:05.066Z,5.50
2019-02-21T05:34:59.430Z,5.50
2019-02-21T05:37:37.826Z,5.50
2019-02-21T05:40:17.607Z,5.50
2019-02-21T05:43:04.604Z,5.50
2019-02-21T05:45:42.662Z,5.50
2019-02-21T05:48:23.756Z,5.50
2019-02-21T05:51:18.288Z,5.50
2019-02-21T05:54:07.965Z,5.50
2019-02-21T05:56:58.377Z,5.60
2019-02-21T05:59:48.701Z,5.60
2019-02-21T06:02:52.522Z,5.60
2019-02-21T06:05:24.977Z,5.70
2019-02-21T06:08:17.823Z,5.70
2019-02-21T06:11:11.752Z,5.70
2019-02-21T06:13:58.508Z,5.70
2019-02-21T06:16:35.813Z,5.80
2019-02-21T06:19:24.073Z,5.80
2019-02-21T06:22:11.430Z,5.90
2019-02-21T06:25:17.578Z,5.90
2019-02-21T06:28:01.129Z,5.90
2019-02-21T06:30:52.376Z,6.00
2019-02-21T06:33:21.886Z,6.00
2019-02-21T06:35:51.902Z,6.00
2019-02-21T06:38:23.471Z,6.10
2019-02-21T06:40:52.863Z,6.10
2019-02-21T06:43:22.558Z,6.10
2019-02-21T06:45:57.936Z,6.20
2019-02-21T06:48:26.915Z,6.20
2019-02-21T06:50:56.293Z,6.20
2019-02-21T06:53:28.331Z,6.20
2019-02-21T06:55:57.750Z,6.10
2019-02-21T06:58:28.165Z,6.10
2019-02-21T07:00:58.338Z,6.20
2019-02-21T07:03:29.042Z,6.20
2019-02-21T07:05:58.985Z,6.20
2019-02-21T07:08:28.377Z,6.20
2019-02-21T07:11:05.861Z,6.20
2019-02-21T07:13:28.805Z,6.20
2019-02-21T07:15:59.206Z,6.20
2019-02-21T07:18:29.981Z,6.20
2019-02-21T07:20:59.666Z,6.20
2019-02-21T07:23:35.797Z,6.20
2019-02-21T07:26:04.697Z,6.30
2019-02-21T07:28:34.491Z,6.30
2019-02-21T07:31:05.027Z,6.30
2019-02-21T07:33:34.424Z,6.30
2019-02-21T07:36:05.117Z,6.40
2019-02-21T07:38:34.570Z,6.40
2019-02-21T07:41:04.119Z,6.50
2019-02-21T07:43:33.640Z,6.50
2019-02-21T07:46:06.956Z,6.50
2019-02-21T07:48:37.005Z,6.50
2019-02-21T07:51:06.483Z,6.50
2019-02-21T07:53:36.067Z,6.60
2019-02-21T07:56:07.629Z,6.60
2019-02-21T07:58:39.545Z,6.60
2019-02-21T08:01:08.424Z,6.60
2019-02-21T08:03:44.964Z,6.60
2019-02-21T08:06:08.986Z,6.70
2019-02-21T08:08:38.374Z,6.70
2019-02-21T08:11:08.377Z,6.80
2019-02-21T08:13:37.961Z,6.80
2019-02-21T08:16:12.367Z,6.90
2019-02-21T08:18:41.262Z,6.90
2019-02-21T08:21:11.013Z,7.00
2019-02-21T08:23:50.156Z,7.10
2019-02-21T08:26:11.654Z,7.10
2019-02-21T08:28:41.168Z,7.10
2019-02-21T08:31:10.497Z,7.20
2019-02-21T08:33:57.950Z,7.30
2019-02-21T08:36:18.797Z,7.40
2019-02-21T08:38:48.282Z,7.50
2019-02-21T08:41:17.703Z,7.60
2019-02-21T08:43:47.168Z,7.60
2019-02-21T08:46:19.518Z,7.70
2019-02-21T08:48:48.894Z,7.70
2019-02-21T08:51:18.533Z,7.80
2019-02-21T08:53:48.328Z,7.80
2019-02-21T08:56:17.764Z,7.80
2019-02-21T08:58:47.176Z,7.80
2019-02-21T09:01:16.664Z,7.80
2019-02-21T09:03:46.017Z,7.90
2019-02-21T09:06:15.408Z,7.90
2019-02-21T09:08:44.895Z,8.00
2019-02-21T09:11:14.310Z,8.00
2019-02-21T09:13:46.172Z,8.00
2019-02-21T09:16:17.811Z,8.00
2019-02-21T09:18:47.085Z,8.10
2019-02-21T09:21:16.594Z,8.10
2019-02-21T09:23:49.090Z,8.10
2019-02-21T09:26:21.533Z,8.20
2019-02-21T09:28:50.155Z,8.20
2019-02-21T09:31:19.649Z,8.20
2019-02-21T09:33:49.058Z,8.30
2019-02-21T09:36:18.996Z,8.40
2019-02-21T09:38:48.426Z,8.50
2019-02-21T09:41:17.880Z,8.50
2019-02-21T09:43:47.552Z,8.60
2019-02-21T09:46:17.045Z,8.70
2019-02-21T09:48:46.558Z,8.70
2019-02-21T09:51:18.197Z,8.80
2019-02-21T09:53:47.317Z,8.90
2019-02-21T09:56:16.813Z,8.90
2019-02-21T09:58:46.216Z,9.00
2019-02-21T10:01:15.592Z,9.00
2019-02-21T10:03:47.086Z,9.10
2019-02-21T10:06:16.299Z,9.20
2019-02-21T10:08:45.981Z,9.30
2019-02-21T10:11:15.448Z,9.40
2019-02-21T10:13:45.196Z,9.40
2019-02-21T10:16:14.687Z,9.50
2019-02-21T10:18:44.136Z,9.50
2019-02-21T10:21:14.445Z,9.60
2019-02-21T10:23:43.790Z,9.70
2019-02-21T10:26:13.369Z,9.70
2019-02-21T10:28:45.028Z,9.80
2019-02-21T10:31:14.118Z,9.80
2019-02-21T10:33:46.966Z,9.90
2019-02-21T10:36:14.810Z,10.00
2019-02-21T10:38:44.289Z,10.10
2019-02-21T10:41:13.774Z,10.30
2019-02-21T10:43:43.613Z,10.40
2019-02-21T10:46:13.087Z,10.60
2019-02-21T10:48:42.848Z,10.80
2019-02-21T10:51:12.242Z,10.90
2019-02-21T10:53:41.601Z,11.00
2019-02-21T10:56:11.044Z,11.00
2019-02-21T10:58:43.455Z,11.10
2019-02-21T11:01:12.967Z,11.20
2019-02-21T11:03:42.430Z,11.40
2019-02-21T11:06:11.946Z,11.50
2019-02-21T11:08:41.418Z,11.60
2019-02-21T11:11:10.924Z,11.60
2019-02-21T11:13:40.458Z,11.70
2019-02-21T11:16:09.920Z,11.70
2019-02-21T11:18:39.419Z,11.70
2019-02-21T11:21:09.007Z,11.70
2019-02-21T11:23:38.430Z,11.80
2019-02-21T11:26:10.585Z,11.80
2019-02-21T11:28:42.338Z,11.90
2019-02-21T11:31:11.763Z,11.90
2019-02-21T11:33:41.099Z,11.90
2019-02-21T11:36:12.149Z,11.90
2019-02-21T11:38:41.591Z,11.90
2019-02-21T11:41:11.050Z,11.90
2019-02-21T11:43:40.521Z,11.90
2019-02-21T11:46:10.164Z,11.80
2019-02-21T11:48:39.643Z,11.90
2019-02-21T11:51:09.264Z,12.00
2019-02-21T11:53:38.767Z,12.00
2019-02-21T11:56:08.441Z,12.00
2019-02-21T11:58:37.901Z,12.00
2019-02-21T12:01:10.214Z,12.10
2019-02-21T12:03:40.176Z,12.10
2019-02-21T12:06:13.162Z,12.20
2019-02-21T12:08:42.805Z,12.20
2019-02-21T12:11:12.169Z,12.20
2019-02-21T12:13:41.691Z,12.20
2019-02-21T12:16:11.240Z,12.20
2019-02-21T12:18:40.707Z,12.20
2019-02-21T12:21:10.167Z,12.20
2019-02-21T12:23:40.563Z,12.30
2019-02-21T12:26:09.986Z,12.30
2019-02-21T12:28:40.582Z,12.40
2019-02-21T12:31:10.395Z,12.40
2019-02-21T12:33:39.994Z,12.40
2019-02-21T12:36:12.429Z,12.40
2019-02-21T12:38:42.498Z,12.40
2019-02-21T12:41:11.971Z,12.30
2019-02-21T12:43:41.702Z,12.30
2019-02-21T12:46:11.367Z,12.30
2019-02-21T12:48:40.733Z,12.30
2019-02-21T12:51:10.481Z,12.20
2019-02-21T12:53:40.004Z,12.10
2019-02-21T12:56:12.815Z,12.10
2019-02-21T12:58:45.195Z,12.00
2019-02-21T13:01:14.044Z,12.00
2019-02-21T13:03:43.791Z,12.00
2019-02-21T13:06:13.450Z,12.00
2019-02-21T13:08:42.892Z,12.00
2019-02-21T13:11:12.470Z,12.00
2019-02-21T13:13:42.425Z,11.90
2019-02-21T13:16:14.742Z,11.80
2019-02-21T13:18:44.247Z,11.80
2019-02-21T13:21:14.733Z,11.80
2019-02-21T13:23:44.163Z,11.70
2019-02-21T13:26:13.664Z,11.70
2019-02-21T13:28:43.148Z,11.60
2019-02-21T13:31:12.575Z,11.60
2019-02-21T13:33:42.407Z,11.50
2019-02-21T13:36:15.807Z,11.40
2019-02-21T13:38:45.161Z,11.40
2019-02-21T13:41:14.749Z,11.30
2019-02-21T13:43:47.134Z,11.20
2019-02-21T13:46:16.727Z,11.20
2019-02-21T13:48:46.058Z,11.00
2019-02-21T13:51:15.408Z,11.00
2019-02-21T13:53:44.956Z,10.90
2019-02-21T13:56:14.320Z,10.90
2019-02-21T13:58:43.770Z,10.90
2019-02-21T14:01:14.499Z,10.80
2019-02-21T14:03:44.652Z,10.70
2019-02-21T14:06:14.415Z,10.70
2019-02-21T14:08:44.132Z,10.50
2019-02-21T14:11:13.551Z,10.50
2019-02-21T14:13:42.940Z,10.50
2019-02-21T14:16:15.053Z,10.50
2019-02-21T14:18:44.982Z,10.40
2019-02-21T14:21:14.430Z,10.30
2019-02-21T14:23:44.344Z,10.30
2019-02-21T14:26:13.746Z,10.20
2019-02-21T14:28:45.875Z,10.20
2019-02-21T14:31:15.291Z,10.20
2019-02-21T14:33:45.044Z,10.20
2019-02-21T14:36:19.274Z,10.20
2019-02-21T14:38:48.961Z,10.20
2019-02-21T14:41:18.359Z,10.10
2019-02-21T14:43:47.798Z,10.10
2019-02-21T14:46:17.270Z,10.10
2019-02-21T14:48:46.651Z,10.10
2019-02-21T14:51:16.466Z,10.10
2019-02-21T14:53:45.796Z,10.00
2019-02-21T14:56:15.158Z,10.00
2019-02-21T14:58:45.533Z,10.00
2019-02-21T15:01:15.267Z,9.90
2019-02-21T15:03:44.594Z,9.90
2019-02-21T15:06:14.265Z,9.90
2019-02-21T15:08:43.985Z,9.90
2019-02-21T15:11:13.695Z,9.80
2019-02-21T15:13:43.611Z,9.80
2019-02-21T15:16:15.760Z,9.70
2019-02-21T15:18:45.134Z,9.70
2019-02-21T15:21:15.059Z,9.70
2019-02-21T15:23:44.772Z,9.60
2019-02-21T15:26:14.177Z,9.70
2019-02-21T15:28:44.394Z,9.70
2019-02-21T15:31:13.804Z,9.60
2019-02-21T15:33:43.150Z,9.60
2019-02-21T15:36:17.049Z,9.60
2019-02-21T15:38:46.898Z,9.60
2019-02-21T15:41:16.299Z,9.50
2019-02-21T15:43:45.662Z,9.50
2019-02-21T15:46:15.189Z,9.50
2019-02-21T15:48:44.850Z,9.50
2019-02-21T15:51:14.678Z,9.50
2019-02-21T15:53:44.140Z,9.50
2019-02-21T15:56:14.590Z,9.50
2019-02-21T15:58:44.214Z,9.40
2019-02-21T16:01:14.373Z,9.40
2019-02-21T16:03:45.497Z,9.40
2019-02-21T16:06:17.057Z,9.40
2019-02-21T16:08:46.697Z,9.30
2019-02-21T16:11:18.802Z,9.30
2019-02-21T16:13:48.402Z,9.30
2019-02-21T16:16:20.226Z,9.40
2019-02-21T16:18:49.839Z,9.30
2019-02-21T16:21:19.253Z,9.30
2019-02-21T16:23:48.620Z,9.30
2019-02-21T16:26:18.083Z,9.30
2019-02-21T16:28:47.892Z,9.30
2019-02-21T16:31:18.252Z,9.30
2019-02-21T16:33:47.628Z,9.30
2019-02-21T16:36:17.244Z,9.20
2019-02-21T16:38:47.027Z,9.20
2019-02-21T16:41:16.941Z,9.20
2019-02-21T16:43:46.547Z,9.20
2019-02-21T16:46:16.281Z,9.20
2019-02-21T16:48:45.721Z,9.20
2019-02-21T16:51:15.112Z,9.20
2019-02-21T16:53:44.498Z,9.20
2019-02-21T16:56:16.174Z,9.20
2019-02-21T16:58:45.919Z,9.20
2019-02-21T17:01:15.289Z,9.20
2019-02-21T17:03:44.901Z,9.10
2019-02-21T17:06:17.049Z,9.10
2019-02-21T17:08:46.505Z,9.10
2019-02-21T17:11:16.223Z,9.10
2019-02-21T17:13:45.723Z,9.10
2019-02-21T17:16:15.182Z,9.10
2019-02-21T17:18:44.596Z,9.10
2019-02-21T17:21:15.400Z,9.10
2019-02-21T17:23:46.298Z,9.10
2019-02-21T17:26:18.406Z,9.10
2019-02-21T17:28:50.054Z,9.10
2019-02-21T17:31:22.543Z,9.10
2019-02-21T17:33:52.073Z,9.10
2019-02-21T17:36:21.466Z,9.00
2019-02-21T17:38:50.937Z,9.10
2019-02-21T17:41:20.458Z,9.00
2019-02-21T17:43:52.902Z,9.00
2019-02-21T17:46:22.333Z,9.00
2019-02-21T17:48:51.692Z,9.00
2019-02-21T17:51:21.167Z,9.00
2019-02-21T17:53:50.573Z,9.00
2019-02-21T17:56:20.128Z,9.00
2019-02-21T17:58:49.633Z,9.00
2019-02-21T18:01:19.094Z,9.00
2019-02-21T18:03:50.721Z,9.00
2019-02-21T18:06:22.085Z,9.00
2019-02-21T18:09:00.478Z,7.80
2019-02-21T18:11:46.439Z,9.00
2019-02-21T18:14:16.524Z,9.00
2019-02-21T18:16:59.118Z,9.00
2019-02-21T18:19:38.929Z,9.00
2019-02-21T18:23:33.825Z,9.00
2019-02-21T18:26:56.018Z,9.00
2019-02-21T18:29:43.713Z,8.90
2019-02-21T18:32:16.200Z,8.90
2019-02-21T18:34:49.442Z,8.90
2019-02-21T18:37:18.355Z,8.90
2019-02-21T18:39:48.006Z,8.90
2019-02-21T18:42:19.587Z,8.90
2019-02-21T18:44:49.241Z,8.90
2019-02-21T18:47:18.924Z,8.90
2019-02-21T18:49:56.792Z,8.90
2019-02-21T18:52:28.156Z,8.90
2019-02-21T18:55:09.949Z,8.90
2019-02-21T18:57:39.699Z,8.90
2019-02-21T19:00:22.051Z,8.90
2019-02-21T19:06:04.087Z,8.80
2019-02-21T19:08:36.933Z,8.80
2019-02-21T19:11:06.829Z,8.80
2019-02-21T19:13:36.478Z,8.80
2019-02-21T19:16:06.065Z,8.80
2019-02-21T19:18:35.743Z,8.80
2019-02-21T19:21:06.692Z,8.80
2019-02-21T19:23:36.327Z,8.80
2019-02-21T19:26:08.569Z,8.80
2019-02-21T19:28:41.090Z,8.80
2019-02-21T19:31:36.591Z,8.80
2019-02-21T19:34:07.756Z,8.80
2019-02-21T19:36:45.153Z,8.70
2019-02-21T19:39:15.525Z,8.80
2019-02-21T19:41:45.890Z,8.70
2019-02-21T19:44:18.504Z,8.70
2019-02-21T19:46:48.280Z,8.80
2019-02-21T19:49:19.369Z,8.70
2019-02-21T19:51:52.661Z,8.70
2019-02-21T19:54:22.414Z,8.70
2019-02-21T19:56:53.506Z,8.70
2019-02-21T19:59:24.902Z,8.70
2019-02-21T20:01:58.522Z,8.60
2019-02-21T20:04:28.288Z,8.60
2019-02-21T20:06:57.947Z,8.60
2019-02-21T20:09:28.379Z,8.60
2019-02-21T20:11:58.940Z,8.60
2019-02-21T20:14:29.164Z,8.60
2019-02-21T20:16:58.873Z,8.60
2019-02-21T20:19:50.002Z,8.60
2019-02-21T20:22:25.904Z,8.60
2019-02-21T20:24:55.550Z,8.60
2019-02-21T20:27:25.797Z,8.60
2019-02-21T20:29:58.510Z,8.60
2019-02-21T20:32:38.025Z,8.60
2019-02-21T20:35:10.028Z,8.60
2019-02-21T20:37:43.159Z,8.60
2019-02-21T20:40:17.824Z,8.60
2019-02-21T20:42:53.122Z,8.60
2019-02-21T20:45:24.827Z,8.60
2019-02-21T20:47:54.725Z,8.60
2019-02-21T20:50:30.918Z,8.60
2019-02-21T20:53:02.859Z,8.60
2019-02-21T20:55:43.068Z,8.60
2019-02-21T20:58:06.022Z,8.60
2019-02-21T21:00:41.634Z,8.60
2019-02-21T21:03:13.760Z,8.60
2019-02-21T21:05:44.126Z,8.60
2019-02-21T21:08:21.024Z,8.50
2019-02-21T21:10:56.930Z,8.50
2019-02-21T21:13:33.389Z,8.50
2019-02-21T21:16:15.680Z,8.50
2019-02-21T21:18:42.924Z,8.50
2019-02-21T21:21:32.800Z,8.50
2019-02-21T21:24:04.551Z,8.50
2019-02-21T21:26:36.698Z,8.50
2019-02-21T21:29:07.573Z,8.50
2019-02-21T21:31:44.666Z,8.50
2019-02-21T21:34:17.120Z,8.50
2019-02-21T21:36:50.027Z,8.50
2019-02-21T21:39:29.274Z,8.40
2019-02-21T21:41:59.273Z,8.40
2019-02-21T21:44:29.442Z,8.40
2019-02-21T21:47:01.152Z,8.40
2019-02-21T21:49:35.042Z,8.40
2019-02-21T21:52:04.780Z,8.40
2019-02-21T21:54:37.906Z,8.40
2019-02-21T21:57:07.362Z,8.40
2019-02-21T21:59:38.548Z,8.40
2019-02-21T22:02:17.684Z,8.40
2019-02-21T22:04:51.181Z,8.40
2019-02-21T22:07:23.069Z,8.40
2019-02-21T22:10:03.128Z,8.40
2019-02-21T22:12:32.741Z,8.40
2019-02-21T22:15:15.842Z,8.30
2019-02-21T22:17:45.527Z,8.40
2019-02-21T22:20:26.550Z,8.30
2019-02-21T22:22:58.642Z,8.30
2019-02-21T22:25:33.181Z,8.40
2019-02-21T22:28:05.687Z,8.30
2019-02-21T22:30:39.173Z,8.30
2019-02-21T22:33:29.050Z,8.30
2019-02-21T22:36:03.338Z,8.30
2019-02-21T22:38:56.365Z,8.30
2019-02-21T22:41:23.491Z,8.30
2019-02-21T22:46:50.802Z,8.30
2019-02-21T22:49:24.254Z,8.20
2019-02-21T22:51:55.797Z,8.20
2019-02-21T22:54:30.484Z,8.20
2019-02-21T22:57:00.197Z,8.20
2019-02-21T22:59:29.763Z,8.20
2019-02-21T23:02:04.762Z,8.20
2019-02-21T23:04:43.955Z,8.20
2019-02-21T23:07:54.659Z,8.20
2019-02-21T23:13:46.734Z,8.20
2019-02-21T23:16:25.135Z,8.20
2019-02-21T23:19:41.411Z,8.20
2019-02-21T23:22:13.679Z,8.20
2019-02-21T23:24:43.323Z,8.10
2019-02-21T23:27:12.776Z,8.10
2019-02-21T23:29:42.600Z,8.10
2019-02-21T23:32:12.293Z,8.10
2019-02-21T23:34:49.077Z,8.10
2019-02-21T23:37:25.043Z,8.10
2019-02-21T23:39:54.634Z,8.00
2019-02-21T23:42:25.212Z,8.00
2019-02-21T23:44:57.686Z,8.00
2019-02-21T23:47:27.311Z,8.00
2019-02-21T23:49:57.032Z,8.00
2019-02-21T23:52:27.463Z,8.00
2019-02-21T23:55:00.606Z,8.00
2019-02-21T23:57:33.950Z,8.00
